createdAt,value
2023-02-27T00:00:24.517Z,95869.19
2023-02-27T00:02:52.024Z,95869.03
2023-02-27T00:05:19.169Z,95873.16
2023-02-27T00:07:45.756Z,95863.06
2023-02-27T00:10:12.746Z,95878.13
2023-02-27T00:12:39.271Z,95872.38
2023-02-27T00:15:06.691Z,95865.94
2023-02-27T00:17:33.412Z,95871.41
2023-02-27T00:19:59.860Z,95874.00
2023-02-27T00:22:26.605Z,95861.69
2023-02-27T00:24:53.067Z,95867.41
2023-02-27T00:27:19.516Z,95862.91
2023-02-27T00:29:45.946Z,95875.91
2023-02-27T00:32:12.442Z,95873.19
2023-02-27T00:34:38.945Z,95870.16
2023-02-27T00:37:05.412Z,95881.13
2023-02-27T00:39:31.957Z,95873.44
2023-02-27T00:41:58.436Z,95871.53
2023-02-27T00:44:24.901Z,95869.75
2023-02-27T00:46:51.440Z,95868.78
2023-02-27T00:49:18.097Z,95873.13
2023-02-27T00:51:44.503Z,95873.03
2023-02-27T00:54:10.969Z,95879.44
2023-02-27T00:56:37.432Z,95877.44
2023-02-27T00:59:04.188Z,95870.31
2023-02-27T01:01:30.698Z,95880.56
2023-02-27T01:03:57.189Z,95870.31
2023-02-27T01:06:23.644Z,95879.34
2023-02-27T01:08:50.080Z,95879.47
2023-02-27T01:11:16.513Z,95880.31
2023-02-27T01:13:44.279Z,95884.81
2023-02-27T01:16:11.256Z,95882.63
2023-02-27T01:18:37.831Z,95887.28
2023-02-27T01:21:04.434Z,95890.72
2023-02-27T01:23:30.988Z,95882.22
2023-02-27T01:25:57.440Z,95880.31
2023-02-27T01:28:23.916Z,95881.09
2023-02-27T01:30:50.404Z,95881.81
2023-02-27T01:33:16.889Z,95883.19
2023-02-27T01:35:43.389Z,95889.34
2023-02-27T01:38:09.883Z,95889.63
2023-02-27T01:40:37.571Z,95887.41
2023-02-27T01:43:04.631Z,95888.22
2023-02-27T01:45:32.885Z,95890.13
2023-02-27T01:48:05.088Z,95893.03
2023-02-27T01:50:31.775Z,95890.81
2023-02-27T01:53:00.038Z,95897.81
2023-02-27T01:55:28.036Z,95907.09
2023-02-27T01:57:54.942Z,95897.03
2023-02-27T02:00:21.828Z,95897.03
2023-02-27T02:02:59.907Z,95901.81
2023-02-27T02:05:26.746Z,95898.81
2023-02-27T02:07:53.654Z,95900.03
2023-02-27T02:10:21.568Z,95907.56
2023-02-27T02:12:48.527Z,95896.47
2023-02-27T02:15:15.243Z,95907.94
2023-02-27T02:17:51.119Z,95895.09
2023-02-27T02:20:17.935Z,95902.22
2023-02-27T02:22:56.564Z,95905.38
2023-02-27T02:25:29.032Z,95898.94
2023-02-27T02:28:13.904Z,95904.38
2023-02-27T02:30:58.919Z,95912.63
2023-02-27T02:33:43.554Z,95913.16
2023-02-27T02:36:17.527Z,95906.88
2023-02-27T02:39:02.830Z,95912.88
2023-02-27T02:41:49.488Z,95915.06
2023-02-27T02:44:15.894Z,95915.22
2023-02-27T02:46:47.683Z,95914.00
2023-02-27T02:49:14.090Z,95914.41
2023-02-27T02:51:46.340Z,95909.72
2023-02-27T02:54:21.806Z,95919.88
2023-02-27T02:57:04.792Z,95917.38
2023-02-27T02:59:41.158Z,95925.22
2023-02-27T03:02:12.447Z,95931.34
2023-02-27T03:04:38.925Z,95923.41
2023-02-27T03:07:20.521Z,95926.56
2023-02-27T03:10:05.502Z,95925.72
2023-02-27T03:12:33.517Z,95929.59
2023-02-27T03:15:20.958Z,95929.59
2023-02-27T03:18:03.114Z,95938.06
2023-02-27T03:20:35.938Z,95940.66
2023-02-27T03:23:05.078Z,95949.00
2023-02-27T03:25:33.240Z,95946.28
2023-02-27T03:28:05.949Z,95950.91
2023-02-27T03:30:41.395Z,95951.31
2023-02-27T03:33:07.830Z,95957.75
2023-02-27T03:35:43.742Z,95966.53
2023-02-27T03:38:20.869Z,95959.38
2023-02-27T03:41:22.780Z,95968.72
2023-02-27T03:43:56.428Z,95966.78
2023-02-27T03:46:24.381Z,95966.94
2023-02-27T03:48:50.863Z,95974.03
2023-02-27T03:51:19.216Z,95982.78
2023-02-27T03:53:56.014Z,95983.34
2023-02-27T03:56:24.968Z,95980.34
2023-02-27T03:58:52.111Z,95977.75
2023-02-27T04:01:19.318Z,95983.22
2023-02-27T04:03:55.635Z,95990.59
2023-02-27T04:06:40.852Z,95993.88
2023-02-27T04:09:11.177Z,95990.06
2023-02-27T04:11:40.876Z,95993.06
2023-02-27T04:14:10.138Z,96003.47
2023-02-27T04:16:45.991Z,95999.63
2023-02-27T04:19:18.996Z,95997.84
2023-02-27T04:21:54.535Z,95999.06
2023-02-27T04:24:27.181Z,96001.28
2023-02-27T04:26:57.109Z,96005.94
2023-02-27T04:29:30.286Z,96002.25
2023-02-27T04:31:59.580Z,96000.19
2023-02-27T04:34:28.887Z,96001.00
2023-02-27T04:36:55.407Z,96006.38
2023-02-27T04:39:24.723Z,95998.13
2023-02-27T04:41:54.245Z,96010.88
2023-02-27T04:44:22.778Z,95994.72
2023-02-27T04:46:50.544Z,96001.03
2023-02-27T04:49:23.191Z,96001.00
2023-02-27T04:52:00.932Z,95998.81
2023-02-27T04:54:34.671Z,96010.47
2023-02-27T04:57:04.184Z,96012.50
2023-02-27T04:59:32.905Z,96011.13
2023-02-27T05:02:08.947Z,96023.03
2023-02-27T05:04:37.107Z,96017.94
2023-02-27T05:07:05.849Z,96019.31
2023-02-27T05:09:38.666Z,96009.75
2023-02-27T05:12:11.342Z,96015.22
2023-02-27T05:15:00.133Z,96012.47
2023-02-27T05:17:33.027Z,96013.44
2023-02-27T05:20:00.026Z,96019.59
2023-02-27T05:22:42.047Z,96006.72
2023-02-27T05:25:22.653Z,96008.59
2023-02-27T05:28:09.379Z,96012.84
2023-02-27T05:30:38.466Z,96021.19
2023-02-27T05:33:13.667Z,96023.38
2023-02-27T05:35:40.333Z,96019.16
2023-02-27T05:38:06.795Z,96023.44
2023-02-27T05:40:35.504Z,96023.44
2023-02-27T05:43:25.378Z,96031.22
2023-02-27T05:45:56.170Z,96032.91
2023-02-27T05:48:25.843Z,96034.38
2023-02-27T05:50:52.984Z,96037.34
2023-02-27T05:53:21.389Z,96045.03
2023-02-27T05:55:50.152Z,96051.88
2023-02-27T05:58:20.319Z,96045.56
2023-02-27T06:01:00.349Z,96047.91
2023-02-27T06:03:28.418Z,96056.22
2023-02-27T06:05:57.108Z,96062.63
2023-02-27T06:08:24.009Z,96066.72
2023-02-27T06:10:50.644Z,96068.47
2023-02-27T06:13:17.357Z,96084.25
2023-02-27T06:15:44.321Z,96065.09
2023-02-27T06:18:14.993Z,96065.66
2023-02-27T06:20:41.945Z,96071.81
2023-02-27T06:23:09.111Z,96071.84
2023-02-27T06:25:35.595Z,96071.28
2023-02-27T06:28:02.460Z,96078.44
2023-02-27T06:30:29.027Z,96085.25
2023-02-27T06:32:55.520Z,96089.06
2023-02-27T06:35:22.469Z,96089.63
2023-02-27T06:37:48.927Z,96088.28
2023-02-27T06:40:15.469Z,96099.44
2023-02-27T06:42:42.698Z,96098.88
2023-02-27T06:45:09.626Z,96105.63
2023-02-27T06:47:36.122Z,96097.97
2023-02-27T06:50:03.434Z,96093.63
2023-02-27T06:52:29.900Z,96107.94
2023-02-27T06:54:56.368Z,96102.59
2023-02-27T06:57:22.903Z,96110.91
2023-02-27T06:59:49.359Z,96107.22
2023-02-27T07:02:16.818Z,96105.41
2023-02-27T07:04:43.458Z,96107.50
2023-02-27T07:07:32.578Z,96107.88
2023-02-27T07:09:56.582Z,96114.03
2023-02-27T07:12:23.206Z,96113.06
2023-02-27T07:14:49.621Z,96111.19
2023-02-27T07:17:16.078Z,96108.22
2023-02-27T07:19:42.642Z,96111.38
2023-02-27T07:22:12.273Z,96114.91
2023-02-27T07:24:38.732Z,96115.31
2023-02-27T07:27:05.147Z,96121.44
2023-02-27T07:29:31.615Z,96116.09
2023-02-27T07:31:58.323Z,96121.09
2023-02-27T07:34:24.753Z,96119.47
2023-02-27T07:36:51.184Z,96121.38
2023-02-27T07:39:17.662Z,96130.16
2023-02-27T07:41:44.091Z,96131.19
2023-02-27T07:44:11.333Z,96136.81
2023-02-27T07:46:37.819Z,96146.53
2023-02-27T07:49:04.384Z,96142.84
2023-02-27T07:51:30.995Z,96137.59
2023-02-27T07:53:58.478Z,96144.06
2023-02-27T07:56:26.611Z,96137.66
2023-02-27T07:58:53.353Z,96154.25
2023-02-27T08:01:20.075Z,96147.09
2023-02-27T08:03:46.492Z,96144.94
2023-02-27T08:06:12.890Z,96153.84
2023-02-27T08:08:39.453Z,96149.06
2023-02-27T08:11:05.906Z,96163.03
2023-02-27T08:13:58.938Z,96151.09
2023-02-27T08:16:18.918Z,96163.31
2023-02-27T08:18:45.445Z,96163.03
2023-02-27T08:21:11.926Z,96158.91
2023-02-27T08:23:38.434Z,96161.41
2023-02-27T08:26:05.009Z,96171.50
2023-02-27T08:28:31.438Z,96177.25
2023-02-27T08:30:57.930Z,96175.84
2023-02-27T08:33:24.936Z,96175.59
2023-02-27T08:35:51.817Z,96178.19
2023-02-27T08:38:18.262Z,96192.81
2023-02-27T08:40:44.734Z,96181.47
2023-02-27T08:43:11.146Z,96197.19
2023-02-27T08:45:37.648Z,96197.88
2023-02-27T08:48:04.179Z,96195.59
2023-02-27T08:50:30.751Z,96194.25
2023-02-27T08:52:57.207Z,96200.22
2023-02-27T08:55:23.799Z,96208.72
2023-02-27T08:57:50.507Z,96212.03
2023-02-27T09:00:17.806Z,96210.69
2023-02-27T09:02:44.509Z,96217.44
2023-02-27T09:05:11.460Z,96223.06
2023-02-27T09:07:37.945Z,96218.53
2023-02-27T09:10:04.613Z,96225.00
2023-02-27T09:12:31.036Z,96227.22
2023-02-27T09:14:57.459Z,96247.19
2023-02-27T09:17:23.907Z,96233.91
2023-02-27T09:19:51.398Z,96232.66
2023-02-27T09:22:18.672Z,96235.94
2023-02-27T09:24:45.133Z,96236.09
2023-02-27T09:27:11.583Z,96237.91
2023-02-27T09:29:38.042Z,96238.84
2023-02-27T09:32:04.606Z,96235.94
2023-02-27T09:34:31.157Z,96244.94
2023-02-27T09:37:01.073Z,96233.16
2023-02-27T09:39:28.002Z,96231.50
2023-02-27T09:42:17.225Z,96239.16
2023-02-27T09:44:47.671Z,96236.97
2023-02-27T09:47:16.436Z,96236.97
2023-02-27T09:50:03.012Z,96241.41
2023-02-27T09:52:31.223Z,96238.66
2023-02-27T09:54:57.878Z,96248.94
2023-02-27T09:57:44.554Z,96234.03
2023-02-27T10:00:19.416Z,96228.84
2023-02-27T10:03:01.210Z,96231.88
2023-02-27T10:05:42.754Z,96248.88
2023-02-27T10:08:14.699Z,96236.81
2023-02-27T10:11:00.288Z,96233.53
2023-02-27T10:13:36.072Z,96237.28
2023-02-27T10:16:03.579Z,96249.22
2023-02-27T10:18:31.899Z,96248.81
2023-02-27T10:20:58.515Z,96247.81
2023-02-27T10:23:33.837Z,96248.66
2023-02-27T10:26:01.053Z,96262.66
2023-02-27T10:28:27.685Z,96262.22
2023-02-27T10:30:55.983Z,96270.28
2023-02-27T10:33:28.132Z,96260.72
2023-02-27T10:35:55.118Z,96251.00
2023-02-27T10:38:29.373Z,96259.91
2023-02-27T10:40:57.902Z,96258.00
2023-02-27T10:43:24.586Z,96255.81
2023-02-27T10:45:51.073Z,96260.47
2023-02-27T10:48:18.146Z,96259.66
2023-02-27T10:50:46.088Z,96259.13
2023-02-27T10:53:22.811Z,96264.56
2023-02-27T10:56:00.812Z,96263.78
2023-02-27T10:58:29.696Z,96264.47
2023-02-27T11:03:41.394Z,96264.59
2023-02-27T11:06:22.470Z,96266.91
2023-02-27T11:09:07.554Z,96270.63
2023-02-27T11:11:33.978Z,96267.38
2023-02-27T11:14:14.883Z,96278.31
2023-02-27T11:16:56.861Z,96279.16
2023-02-27T11:19:25.055Z,96285.84
2023-02-27T11:22:00.829Z,96285.97
2023-02-27T11:24:29.035Z,96295.28
2023-02-27T11:26:57.695Z,96293.34
2023-02-27T11:29:24.214Z,96288.69
2023-02-27T11:31:53.873Z,96276.66
2023-02-27T11:34:22.492Z,96287.31
2023-02-27T11:36:49.866Z,96284.69
2023-02-27T11:39:27.476Z,96282.66
2023-02-27T11:41:54.904Z,96278.84
2023-02-27T11:44:34.572Z,96282.66
2023-02-27T11:47:16.866Z,96285.25
2023-02-27T11:50:05.365Z,96280.47
2023-02-27T11:52:31.771Z,96289.53
2023-02-27T11:55:00.738Z,96285.69
2023-02-27T11:57:32.653Z,96289.53
2023-02-27T12:00:03.363Z,96287.34
2023-02-27T12:02:46.165Z,96290.50
2023-02-27T12:05:17.994Z,96275.84
2023-02-27T12:07:44.442Z,96281.75
2023-02-27T12:10:10.946Z,96272.28
2023-02-27T12:12:49.686Z,96284.06
2023-02-27T12:15:37.205Z,96276.00
2023-02-27T12:18:08.095Z,96278.75
2023-02-27T12:20:53.106Z,96281.88
2023-02-27T12:23:23.544Z,96273.66
2023-02-27T12:25:56.820Z,96281.22
2023-02-27T12:28:26.448Z,96280.91
2023-02-27T12:31:08.200Z,96281.47
2023-02-27T12:33:40.558Z,96284.09
2023-02-27T12:36:10.480Z,96290.78
2023-02-27T12:38:37.209Z,96300.28
2023-02-27T12:41:27.197Z,96300.13
2023-02-27T12:44:26.267Z,96291.91
2023-02-27T12:47:03.907Z,96307.13
2023-02-27T12:49:42.991Z,96302.47
2023-02-27T12:52:19.269Z,96302.06
2023-02-27T12:54:55.853Z,96305.47
2023-02-27T12:57:30.250Z,96304.78
2023-02-27T13:00:18.513Z,96306.72
2023-02-27T13:02:51.210Z,96309.88
2023-02-27T13:05:26.954Z,96308.22
2023-02-27T13:08:28.752Z,96318.34
2023-02-27T13:11:13.798Z,96311.09
2023-02-27T13:13:44.103Z,96305.47
2023-02-27T13:16:21.830Z,96311.38
2023-02-27T13:18:56.469Z,96316.16
2023-02-27T13:21:32.199Z,96315.88
2023-02-27T13:23:58.812Z,96319.75
2023-02-27T13:26:27.535Z,96323.88
2023-02-27T13:28:54.880Z,96313.03
2023-02-27T13:31:24.447Z,96315.63
2023-02-27T13:33:53.670Z,96317.00
2023-02-27T13:36:43.505Z,96317.81
2023-02-27T13:39:28.657Z,96317.13
2023-02-27T13:41:55.114Z,96319.75
2023-02-27T13:44:21.633Z,96326.88
2023-02-27T13:46:48.104Z,96312.63
2023-02-27T13:49:29.598Z,96323.06
2023-02-27T13:51:59.518Z,96313.31
2023-02-27T13:54:28.071Z,96320.84
2023-02-27T13:56:54.500Z,96316.06
2023-02-27T13:59:23.945Z,96308.25
2023-02-27T14:01:56.161Z,96314.81
2023-02-27T14:04:25.327Z,96313.72
2023-02-27T14:06:57.116Z,96313.72
2023-02-27T14:09:23.652Z,96320.69
2023-02-27T14:11:54.482Z,96324.69
2023-02-27T14:14:37.842Z,96317.28
2023-02-27T14:17:04.535Z,96325.25
2023-02-27T14:19:34.060Z,96334.00
2023-02-27T14:22:24.533Z,96330.72
2023-02-27T14:25:02.425Z,96332.38
2023-02-27T14:27:38.384Z,96332.66
2023-02-27T14:30:07.918Z,96329.59
2023-02-27T14:32:35.447Z,96327.44
2023-02-27T14:35:03.021Z,96340.47
2023-02-27T14:37:30.759Z,96335.69
2023-02-27T14:40:00.732Z,96347.03
2023-02-27T14:42:49.168Z,96345.81
2023-02-27T14:45:24.481Z,96353.91
2023-02-27T14:47:52.001Z,96351.56
2023-02-27T14:50:32.304Z,96350.91
2023-02-27T14:52:58.868Z,96354.59
2023-02-27T14:55:30.141Z,96356.63
2023-02-27T14:58:01.504Z,96351.97
2023-02-27T15:00:29.278Z,96361.72
2023-02-27T15:02:55.905Z,96361.84
2023-02-27T15:05:26.482Z,96356.78
2023-02-27T15:07:53.597Z,96366.50
2023-02-27T15:10:25.135Z,96369.94
2023-02-27T15:12:52.438Z,96378.41
2023-02-27T15:15:20.488Z,96376.78
2023-02-27T15:17:48.385Z,96374.84
2023-02-27T15:20:27.557Z,96364.84
2023-02-27T15:22:54.028Z,96374.75
2023-02-27T15:25:31.959Z,96381.50
2023-02-27T15:28:01.433Z,96377.78
2023-02-27T15:30:28.000Z,96378.22
2023-02-27T15:32:55.912Z,96383.41
2023-02-27T15:35:24.919Z,96384.94
2023-02-27T15:37:56.358Z,96387.28
2023-02-27T15:40:25.871Z,96391.66
2023-02-27T15:42:53.415Z,96398.22
2023-02-27T15:45:21.472Z,96399.03
2023-02-27T15:47:48.076Z,96405.63
2023-02-27T15:50:17.502Z,96413.03
2023-02-27T15:52:50.435Z,96419.09
2023-02-27T15:55:21.483Z,96422.53
2023-02-27T15:58:01.909Z,96416.91
2023-02-27T16:00:30.045Z,96422.34
2023-02-27T16:02:57.689Z,96434.94
2023-02-27T16:05:27.057Z,96438.78
2023-02-27T16:07:53.824Z,96435.44
2023-02-27T16:10:30.839Z,96435.47
2023-02-27T16:12:57.381Z,96434.13
2023-02-27T16:15:31.387Z,96449.25
2023-02-27T16:17:57.889Z,96437.44
2023-02-27T16:20:39.648Z,96445.41
2023-02-27T16:23:06.133Z,96451.44
2023-02-27T16:25:32.868Z,96449.94
2023-02-27T16:27:59.505Z,96462.00
2023-02-27T16:30:26.055Z,96457.50
2023-02-27T16:32:58.722Z,96460.38
2023-02-27T16:35:25.668Z,96467.22
2023-02-27T16:37:53.477Z,96470.09
2023-02-27T16:40:22.600Z,96472.03
2023-02-27T16:42:49.549Z,96480.13
2023-02-27T16:45:18.802Z,96480.97
2023-02-27T16:47:48.256Z,96483.97
2023-02-27T16:50:18.491Z,96493.72
2023-02-27T16:52:45.142Z,96482.44
2023-02-27T16:55:13.109Z,96492.03
2023-02-27T16:57:39.596Z,96500.47
2023-02-27T17:00:08.911Z,96502.09
2023-02-27T17:02:35.427Z,96500.34
2023-02-27T17:05:02.946Z,96507.50
2023-02-27T17:07:30.526Z,96503.34
2023-02-27T17:09:57.096Z,96504.28
2023-02-27T17:12:23.532Z,96506.53
2023-02-27T17:14:49.966Z,96508.16
2023-02-27T17:17:16.387Z,96508.56
2023-02-27T17:19:42.808Z,96520.13
2023-02-27T17:22:09.560Z,96528.22
2023-02-27T17:24:36.646Z,96520.28
2023-02-27T17:27:03.138Z,96523.72
2023-02-27T17:29:29.670Z,96526.31
2023-02-27T17:31:57.466Z,96526.19
2023-02-27T17:34:24.503Z,96532.91
2023-02-27T17:36:50.941Z,96533.88
2023-02-27T17:39:17.468Z,96531.41
2023-02-27T17:41:44.293Z,96534.84
2023-02-27T17:44:11.596Z,96540.88
2023-02-27T17:46:38.483Z,96539.38
2023-02-27T17:49:05.422Z,96536.34
2023-02-27T17:51:32.426Z,96538.25
2023-02-27T17:54:03.054Z,96535.63
2023-02-27T17:56:30.116Z,96549.66
2023-02-27T17:58:56.956Z,96540.16
2023-02-27T18:01:25.821Z,96544.53
2023-02-27T18:03:54.315Z,96544.53
2023-02-27T18:06:21.348Z,96546.84
2023-02-27T18:08:48.424Z,96551.41
2023-02-27T18:11:16.446Z,96554.09
2023-02-27T18:13:43.021Z,96553.25
2023-02-27T18:16:10.728Z,96548.59
2023-02-27T18:18:38.589Z,96559.31
2023-02-27T18:21:10.138Z,96562.34
2023-02-27T18:23:37.091Z,96557.81
2023-02-27T18:26:04.316Z,96570.59
2023-02-27T18:28:30.737Z,96570.31
2023-02-27T18:30:57.326Z,96570.59
2023-02-27T18:33:24.266Z,96576.09
2023-02-27T18:35:51.119Z,96575.69
2023-02-27T18:38:17.775Z,96577.47
2023-02-27T18:40:44.356Z,96579.94
2023-02-27T18:43:11.473Z,96585.53
2023-02-27T18:45:38.305Z,96590.38
2023-02-27T18:48:04.930Z,96593.56
2023-02-27T18:50:31.409Z,96586.81
2023-02-27T18:52:59.205Z,96594.75
2023-02-27T18:55:25.871Z,96597.78
2023-02-27T18:57:52.343Z,96600.63
2023-02-27T19:00:19.397Z,96602.56
2023-02-27T19:02:45.944Z,96608.72
2023-02-27T19:05:14.570Z,96615.31
2023-02-27T19:07:41.498Z,96607.38
2023-02-27T19:10:08.729Z,96611.75
2023-02-27T19:12:35.176Z,96615.31
2023-02-27T19:15:01.619Z,96611.19
2023-02-27T19:17:28.251Z,96621.63
2023-02-27T19:19:54.806Z,96622.00
2023-02-27T19:22:21.289Z,96626.72
2023-02-27T19:24:48.078Z,96623.00
2023-02-27T19:27:17.119Z,96624.47
2023-02-27T19:29:43.690Z,96628.84
2023-02-27T19:32:10.257Z,96621.16
2023-02-27T19:34:36.748Z,96629.59
2023-02-27T19:37:03.465Z,96637.50
2023-02-27T19:39:29.909Z,96630.97
2023-02-27T19:41:56.682Z,96637.56
2023-02-27T19:44:23.264Z,96635.66
2023-02-27T19:46:52.122Z,96629.88
2023-02-27T19:49:19.253Z,96641.25
2023-02-27T19:51:45.711Z,96640.59
2023-02-27T19:54:12.868Z,96642.53
2023-02-27T19:56:39.404Z,96636.22
2023-02-27T19:59:05.993Z,96651.53
2023-02-27T20:01:33.795Z,96643.16
2023-02-27T20:04:01.450Z,96643.41
2023-02-27T20:06:29.639Z,96648.31
2023-02-27T20:08:57.292Z,96640.81
2023-02-27T20:11:23.847Z,96653.44
2023-02-27T20:13:51.539Z,96640.88
2023-02-27T20:16:19.261Z,96643.22
2023-02-27T20:18:45.780Z,96641.44
2023-02-27T20:23:57.995Z,96644.44
2023-02-27T20:26:26.524Z,96649.69
2023-02-27T20:28:54.054Z,96644.94
2023-02-27T20:31:22.087Z,96646.34
2023-02-27T20:33:49.196Z,96646.59
2023-02-27T20:36:16.161Z,96641.88
2023-02-27T20:38:42.673Z,96629.38
2023-02-27T20:43:52.524Z,96636.53
2023-02-27T20:46:21.754Z,96638.69
2023-02-27T20:48:48.233Z,96641.28
2023-02-27T20:51:16.359Z,96641.91
2023-02-27T20:53:44.052Z,96639.00
2023-02-27T20:56:11.159Z,96630.03
2023-02-27T20:58:38.322Z,96633.81
2023-02-27T21:01:09.254Z,96638.19
2023-02-27T21:03:39.017Z,96630.06
2023-02-27T21:06:06.483Z,96636.69
2023-02-27T21:08:34.534Z,96641.34
2023-02-27T21:11:06.122Z,96641.34
2023-02-27T21:13:32.806Z,96649.50
2023-02-27T21:16:04.126Z,96648.09
2023-02-27T21:18:30.923Z,96646.81
2023-02-27T21:21:00.190Z,96656.88
2023-02-27T21:23:26.726Z,96655.47
2023-02-27T21:25:53.685Z,96666.94
2023-02-27T21:28:20.284Z,96664.69
2023-02-27T21:30:46.741Z,96663.97
2023-02-27T21:33:13.195Z,96664.22
2023-02-27T21:35:44.718Z,96666.34
2023-02-27T21:38:11.305Z,96680.31
2023-02-27T21:40:37.731Z,96680.06
2023-02-27T21:43:04.166Z,96677.72
2023-02-27T21:45:30.579Z,96675.72
2023-02-27T21:47:57.020Z,96686.91
2023-02-27T21:50:23.452Z,96684.78
2023-02-27T21:52:50.012Z,96687.88
2023-02-27T21:55:16.605Z,96678.41
2023-02-27T21:57:43.100Z,96684.78
2023-02-27T22:00:13.605Z,96681.03
2023-02-27T22:02:40.165Z,96684.34
2023-02-27T22:05:06.964Z,96694.97
2023-02-27T22:07:33.440Z,96691.78
2023-02-27T22:09:59.954Z,96695.91
2023-02-27T22:12:27.069Z,96695.91
2023-02-27T22:14:53.501Z,96693.41
2023-02-27T22:17:20.286Z,96685.94
2023-02-27T22:19:47.895Z,96687.75
2023-02-27T22:22:14.385Z,96689.75
2023-02-27T22:24:42.073Z,96683.13
2023-02-27T22:27:09.333Z,96682.75
2023-02-27T22:29:36.570Z,96690.91
2023-02-27T22:32:03.080Z,96690.31
2023-02-27T22:34:29.560Z,96686.25
2023-02-27T22:36:56.268Z,96679.06
2023-02-27T22:39:22.739Z,96681.19
2023-02-27T22:41:49.170Z,96679.19
2023-02-27T22:44:16.174Z,96681.31
2023-02-27T22:46:44.583Z,96673.66
2023-02-27T22:49:15.500Z,96682.63
2023-02-27T22:51:42.447Z,96679.91
2023-02-27T22:54:10.115Z,96680.72
2023-02-27T22:56:36.836Z,96679.91
2023-02-27T22:59:03.673Z,96685.78
2023-02-27T23:01:31.873Z,96696.59
2023-02-27T23:04:00.119Z,96696.47
2023-02-27T23:06:28.518Z,96702.94
2023-02-27T23:08:55.288Z,96712.72
2023-02-27T23:11:21.828Z,96709.44
2023-02-27T23:13:48.398Z,96712.34
2023-02-27T23:16:15.011Z,96720.34
2023-02-27T23:18:42.571Z,96724.00
2023-02-27T23:21:09.440Z,96727.19
2023-02-27T23:23:38.482Z,96727.72
2023-02-27T23:26:06.338Z,96719.69
2023-02-27T23:28:33.348Z,96725.38
2023-02-27T23:30:59.867Z,96720.50
2023-02-27T23:33:27.237Z,96704.66
2023-02-27T23:35:53.692Z,96715.50
2023-02-27T23:38:20.290Z,96725.41
2023-02-27T23:40:46.734Z,96729.63
2023-02-27T23:43:13.870Z,96731.38
2023-02-27T23:45:40.738Z,96728.19
2023-02-27T23:48:07.217Z,96736.81
2023-02-27T23:50:35.523Z,96748.25
2023-02-27T23:53:02.090Z,96740.00
2023-02-27T23:55:29.892Z,96736.69
2023-02-27T23:57:57.265Z,96740.66
